createdAt,value
2018-07-24T00:01:41.231Z,80.70
2018-07-24T00:04:11.960Z,81.00
2018-07-24T00:06:44.014Z,81.30
2018-07-24T00:09:14.808Z,81.90
2018-07-24T00:11:44.879Z,82.20
2018-07-24T00:14:14.537Z,81.80
2018-07-24T00:16:46.257Z,81.70
2018-07-24T00:19:29.419Z,81.80
2018-07-24T00:21:59.966Z,81.50
2018-07-24T00:24:29.842Z,81.70
2018-07-24T00:26:59.916Z,81.80
2018-07-24T00:29:35.965Z,82.10
2018-07-24T00:32:06.688Z,82.00
2018-07-24T00:34:43.075Z,82.00
2018-07-24T00:37:13.149Z,82.00
2018-07-24T00:42:25.641Z,82.50
2018-07-24T00:44:57.686Z,82.60
2018-07-24T00:47:27.825Z,82.80
2018-07-24T00:49:57.464Z,82.80
2018-07-24T00:52:28.950Z,83.00
2018-07-24T00:54:58.474Z,83.00
2018-07-24T00:57:34.896Z,83.10
2018-07-24T01:00:05.312Z,83.30
2018-07-24T01:02:34.917Z,83.60
2018-07-24T01:05:11.506Z,83.50
2018-07-24T01:07:41.511Z,84.00
2018-07-24T01:10:12.073Z,84.20
2018-07-24T01:12:46.107Z,84.30
2018-07-24T01:15:15.709Z,84.50
2018-07-24T01:17:45.661Z,84.50
2018-07-24T01:20:23.108Z,83.80
2018-07-24T01:25:21.641Z,84.20
2018-07-24T01:27:51.362Z,84.90
2018-07-24T01:30:20.994Z,84.00
2018-07-24T01:32:51.305Z,84.30
2018-07-24T01:35:25.528Z,84.60
2018-07-24T01:37:55.176Z,84.70
2018-07-24T01:40:25.077Z,84.90
2018-07-24T01:42:54.902Z,85.70
2018-07-24T01:45:24.462Z,85.20
2018-07-24T01:48:08.917Z,85.40
2018-07-24T01:50:38.548Z,85.00
2018-07-24T01:53:08.440Z,85.00
2018-07-24T01:55:44.717Z,85.00
2018-07-24T01:58:19.341Z,85.10
2018-07-24T02:00:50.245Z,85.20
2018-07-24T02:03:19.891Z,85.40
2018-07-24T02:05:49.474Z,85.70
2018-07-24T02:08:19.468Z,85.50
2018-07-24T02:10:49.062Z,85.30
2018-07-24T02:13:18.618Z,85.00
2018-07-24T02:15:48.572Z,84.90
2018-07-24T02:21:03.097Z,85.00
2018-07-24T02:23:32.680Z,85.30
2018-07-24T02:26:02.567Z,85.50
2018-07-24T02:28:32.584Z,85.60
2018-07-24T02:31:02.115Z,85.40
2018-07-24T02:33:47.552Z,85.50
2018-07-24T02:36:17.593Z,85.20
2018-07-24T02:41:29.370Z,85.20
2018-07-24T02:44:07.904Z,85.30
2018-07-24T02:46:37.706Z,86.00
2018-07-24T02:49:12.905Z,85.90
2018-07-24T02:51:42.766Z,85.80
2018-07-24T02:54:12.262Z,86.10
2018-07-24T02:56:41.827Z,86.00
2018-07-24T02:59:11.679Z,85.80
2018-07-24T03:01:41.199Z,86.20
2018-07-24T03:04:10.762Z,86.20
2018-07-24T03:06:40.559Z,86.70
2018-07-24T03:09:11.531Z,86.40
2018-07-24T03:11:41.224Z,86.40
2018-07-24T03:14:11.071Z,86.90
2018-07-24T03:19:09.546Z,87.30
2018-07-24T03:21:52.753Z,87.10
2018-07-24T03:24:22.276Z,87.40
2018-07-24T03:26:52.151Z,87.30
2018-07-24T03:29:21.663Z,87.50
2018-07-24T03:31:51.199Z,87.60
2018-07-24T03:34:21.076Z,87.70
2018-07-24T03:36:55.874Z,87.70
2018-07-24T03:39:25.436Z,88.00
2018-07-24T03:41:55.264Z,87.90
2018-07-24T03:44:24.950Z,87.80
2018-07-24T03:46:54.473Z,88.00
2018-07-24T03:49:24.289Z,88.00
2018-07-24T03:51:58.313Z,88.00
2018-07-24T03:54:34.681Z,88.10
2018-07-24T03:57:09.099Z,88.30
2018-07-24T03:59:45.449Z,88.20
2018-07-24T04:02:19.892Z,88.00
2018-07-24T04:04:49.463Z,87.70
2018-07-24T04:07:18.984Z,87.60
2018-07-24T04:09:48.511Z,87.70
2018-07-24T04:12:18.334Z,87.60
2018-07-24T04:14:47.824Z,87.60
2018-07-24T04:17:17.326Z,87.60
2018-07-24T04:19:46.817Z,87.50
2018-07-24T04:22:16.653Z,87.70
2018-07-24T04:24:58.121Z,87.60
2018-07-24T04:27:35.218Z,87.60
2018-07-24T04:30:05.545Z,87.70
2018-07-24T04:32:35.371Z,87.70
2018-07-24T04:35:05.039Z,87.80
2018-07-24T04:37:34.564Z,88.00
2018-07-24T04:40:04.561Z,88.60
2018-07-24T04:42:34.029Z,88.90
2018-07-24T04:45:03.606Z,88.50
2018-07-24T04:47:33.614Z,88.30
2018-07-24T04:50:03.143Z,88.60
2018-07-24T04:52:32.779Z,88.60
2018-07-24T04:55:10.161Z,88.60
2018-07-24T04:57:44.159Z,88.50
2018-07-24T05:00:14.055Z,88.70
2018-07-24T05:02:43.611Z,88.80
2018-07-24T05:05:13.209Z,88.70
2018-07-24T05:07:43.191Z,88.50
2018-07-24T05:10:12.722Z,88.00
2018-07-24T05:12:42.607Z,88.30
2018-07-24T05:15:12.553Z,87.70
2018-07-24T05:17:42.164Z,87.40
2018-07-24T05:20:11.894Z,87.50
2018-07-24T05:22:41.742Z,87.10
2018-07-24T05:25:11.468Z,87.00
2018-07-24T05:27:41.182Z,87.10
2018-07-24T05:30:11.227Z,86.80
2018-07-24T05:32:40.875Z,86.70
2018-07-24T05:35:10.475Z,86.50
2018-07-24T05:37:40.067Z,86.70
2018-07-24T05:40:09.687Z,86.70
2018-07-24T05:45:08.914Z,85.70
2018-07-24T05:47:38.475Z,85.40
2018-07-24T05:50:08.690Z,85.90
2018-07-24T05:52:38.632Z,85.70
2018-07-24T05:55:08.238Z,86.30
2018-07-24T05:57:37.786Z,86.60
2018-07-24T06:00:07.963Z,86.60
2018-07-24T06:02:37.590Z,86.50
2018-07-24T06:05:07.407Z,85.10
2018-07-24T06:07:37.272Z,85.20
2018-07-24T06:10:06.903Z,85.00
2018-07-24T06:12:36.540Z,86.20
2018-07-24T06:15:07.878Z,86.00
2018-07-24T06:17:37.566Z,84.20
2018-07-24T06:20:08.932Z,84.10
2018-07-24T06:22:38.843Z,84.20
2018-07-24T06:25:08.756Z,84.10
2018-07-24T06:27:38.367Z,83.80
2018-07-24T06:30:15.658Z,83.10
2018-07-24T06:32:50.627Z,83.50
2018-07-24T06:35:20.492Z,83.30
2018-07-24T06:37:56.183Z,82.70
2018-07-24T06:40:33.261Z,82.20
2018-07-24T06:43:03.036Z,82.20
2018-07-24T06:45:33.005Z,82.00
2018-07-24T06:48:02.673Z,83.10
2018-07-24T06:50:32.316Z,82.80
2018-07-24T06:53:02.296Z,81.50
2018-07-24T06:55:32.024Z,81.60
2018-07-24T06:58:01.887Z,81.20
2018-07-24T07:00:31.762Z,80.90
2018-07-24T07:03:01.556Z,81.10
2018-07-24T07:05:31.207Z,81.60
2018-07-24T07:08:06.732Z,82.10
2018-07-24T07:10:36.463Z,80.70
2018-07-24T07:13:06.293Z,81.00
2018-07-24T07:15:37.092Z,80.40
2018-07-24T07:18:06.766Z,80.10
2018-07-24T07:20:36.343Z,80.60
2018-07-24T07:23:13.437Z,80.40
2018-07-24T07:25:43.192Z,78.80
2018-07-24T07:28:13.465Z,80.10
2018-07-24T07:30:43.379Z,79.30
2018-07-24T07:33:12.984Z,78.20
2018-07-24T07:35:43.031Z,77.00
2018-07-24T07:38:21.879Z,77.20
2018-07-24T07:42:10.875Z,77.20
2018-07-24T07:44:40.628Z,77.20
2018-07-24T07:47:10.624Z,73.70
2018-07-24T07:49:40.318Z,74.00
2018-07-24T07:52:09.862Z,75.90
2018-07-24T07:54:39.938Z,75.50
2018-07-24T07:57:09.612Z,73.70
2018-07-24T07:59:39.403Z,75.10
2018-07-24T08:02:09.647Z,73.00
2018-07-24T08:04:39.436Z,73.10
2018-07-24T08:07:08.988Z,70.20
2018-07-24T08:09:39.085Z,70.40
2018-07-24T08:12:08.645Z,72.00
2018-07-24T08:14:38.348Z,71.60
2018-07-24T08:17:08.293Z,71.50
2018-07-24T08:19:38.681Z,71.30
2018-07-24T08:22:08.532Z,71.00
2018-07-24T08:24:38.849Z,70.80
2018-07-24T08:27:09.189Z,71.30
2018-07-24T08:29:39.142Z,70.40
2018-07-24T08:32:09.841Z,70.40
2018-07-24T08:34:45.328Z,69.80
2018-07-24T08:37:15.262Z,69.50
2018-07-24T08:39:45.290Z,67.50
2018-07-24T08:42:22.230Z,67.60
2018-07-24T08:44:57.601Z,66.80
2018-07-24T08:47:27.501Z,66.80
2018-07-24T08:49:57.420Z,67.10
2018-07-24T08:52:37.869Z,66.80
2018-07-24T08:55:08.271Z,65.70
2018-07-24T08:57:37.935Z,64.40
2018-07-24T09:00:09.459Z,63.40
2018-07-24T09:02:39.602Z,63.10
2018-07-24T09:05:09.525Z,63.80
2018-07-24T09:07:39.501Z,63.20
2018-07-24T09:10:11.535Z,62.40
2018-07-24T09:12:41.286Z,63.00
2018-07-24T09:15:17.680Z,62.50
2018-07-24T09:17:47.815Z,61.70
2018-07-24T09:20:17.597Z,61.40
2018-07-24T09:22:47.461Z,61.10
2018-07-24T09:25:17.500Z,61.00
2018-07-24T09:27:47.698Z,59.90
2018-07-24T09:30:17.589Z,59.70
2018-07-24T09:32:47.560Z,58.20
2018-07-24T09:35:18.130Z,58.60
2018-07-24T09:37:47.845Z,58.00
2018-07-24T09:40:18.054Z,57.50
2018-07-24T09:42:47.780Z,57.60
2018-07-24T09:45:17.670Z,58.20
2018-07-24T09:47:47.965Z,57.70
2018-07-24T09:50:17.660Z,56.90
2018-07-24T09:52:47.411Z,56.80
2018-07-24T09:55:17.618Z,56.30
2018-07-24T09:57:55.269Z,55.20
2018-07-24T10:00:31.022Z,54.10
2018-07-24T10:03:00.700Z,55.10
2018-07-24T10:05:30.473Z,54.40
2018-07-24T10:08:00.654Z,53.80
